Time;durP1;ratioP1;P1;durP2;ratioP2;P2;SDS_P1;SDS_P2;PMS_P1;PMS_P2;Temp;Humidity;BMP_temperature;BMP_pressure;BME280_temperature;BME280_humidity;BME280_pressure;Samples;Min_cycle;Max_cycle;Signal;HPM_P1;HPM_P2
2022/05/14 00:01:00;;;;;;;1.95;1.05;;;;;;;18.20;48.57;100860.66;4974998;28;20415;-71
2022/05/14 00:03:27;;;;;;;1.92;1.10;;;;;;;18.12;48.92;100855.75;4974818;28;20408;-71
2022/05/14 00:05:54;;;;;;;2.43;1.53;;;;;;;18.04;49.01;100859.13;4972596;28;20487;-71
2022/05/14 00:08:23;;;;;;;4.35;1.40;;;;;;;17.99;49.09;100854.47;4973752;28;20407;-71
2022/05/14 00:13:34;;;;;;;3.05;1.20;;;;;;;17.87;49.42;100861.41;4973987;28;20471;-71
2022/05/14 00:16:00;;;;;;;2.53;0.93;;;;;;;17.80;49.72;100858.16;4974000;28;20444;-71
2022/05/14 00:18:26;;;;;;;5.07;1.30;;;;;;;17.74;49.84;100856.56;4974645;28;20395;-71
2022/05/14 00:20:51;;;;;;;3.77;1.50;;;;;;;17.73;50.07;100857.66;4974571;28;20396;-71
2022/05/14 00:23:17;;;;;;;4.07;1.43;;;;;;;17.69;49.80;100860.13;4974492;28;20419;-71
2022/05/14 00:25:43;;;;;;;3.60;1.10;;;;;;;17.69;50.11;100854.66;4973251;28;20411;-71
2022/05/14 00:28:08;;;;;;;2.78;1.08;;;;;;;17.63;50.32;100853.88;4974583;28;20400;-71
2022/05/14 00:30:35;;;;;;;5.67;1.20;;;;;;;17.57;50.46;100857.75;4974610;28;20466;-71
2022/05/14 00:33:00;;;;;;;3.53;1.27;;;;;;;17.55;50.51;100851.72;4974268;28;20440;-71
2022/05/14 00:35:26;;;;;;;2.78;1.33;;;;;;;17.53;50.67;100850.31;4972757;28;20449;-71
2022/05/14 00:37:52;;;;;;;2.15;1.05;;;;;;;17.51;50.42;100850.63;4974264;28;20403;-71
2022/05/14 00:40:28;;;;;;;5.30;1.00;;;;;;;17.49;50.40;100850.06;4974126;28;20392;-71
2022/05/14 00:42:54;;;;;;;1.13;1.00;;;;;;;17.46;50.11;100855.28;4959085;28;20738;-71
2022/05/14 00:45:21;;;;;;;2.10;1.10;;;;;;;17.46;50.05;100853.38;4972963;28;20415;-71
2022/05/14 00:47:51;;;;;;;4.07;1.02;;;;;;;17.44;50.15;100850.09;4974152;28;20400;-71
2022/05/14 00:50:37;;;;;;;2.88;1.10;;;;;;;17.43;50.10;100850.38;4974074;28;20389;-71
2022/05/14 00:53:24;;;;;;;5.80;1.10;;;;;;;17.42;50.22;100840.53;4974174;28;20389;-71
2022/05/14 00:55:52;;;;;;;2.25;0.82;;;;;;;17.41;50.35;100844.34;4972655;28;20418;-71
2022/05/14 00:58:38;;;;;;;2.40;1.35;;;;;;;17.34;50.65;100850.13;4973794;28;20412;-71
2022/05/14 01:01:03;;;;;;;3.67;1.20;;;;;;;17.29;50.75;100852.88;4973110;28;20415;-71
2022/05/14 01:03:29;;;;;;;3.10;1.35;;;;;;;17.30;50.57;100850.97;4973820;28;20412;-72
2022/05/14 01:05:57;;;;;;;2.83;1.30;;;;;;;17.37;50.33;100841.38;4972447;28;20423;-71
2022/05/14 01:08:23;;;;;;;3.23;0.93;;;;;;;17.36;50.16;100847.09;4958065;28;20392;-71
2022/05/14 01:10:48;;;;;;;2.33;1.00;;;;;;;17.33;50.54;100842.19;4973740;28;20595;-71
2022/05/14 01:13:14;;;;;;;1.33;0.87;;;;;;;17.25;50.78;100846.34;4973648;28;20966;-71
2022/05/14 01:15:47;;;;;;;4.07;1.30;;;;;;;17.25;50.95;100851.00;4971924;28;20745;-71
2022/05/14 01:18:12;;;;;;;3.10;1.23;;;;;;;17.26;50.53;100845.22;4966175;28;20455;-71
2022/05/14 01:20:39;;;;;;;1.60;0.90;;;;;;;17.29;50.24;100844.66;4973110;28;20389;-71
2022/05/14 01:23:24;;;;;;;1.23;1.02;;;;;;;17.28;50.17;100839.50;4973452;28;20412;-71
2022/05/14 01:28:51;;;;;;;2.85;1.17;;;;;;;17.20;50.39;100845.53;4973309;28;20391;-71
2022/05/14 01:31:17;;;;;;;2.33;1.20;;;;;;;17.16;50.24;100848.00;4973363;28;20396;-70
2022/05/14 01:33:42;;;;;;;2.35;1.23;;;;;;;17.11;50.24;100845.28;4973036;28;20424;-71
2022/05/14 01:36:08;;;;;;;4.03;1.30;;;;;;;17.09;50.47;100844.75;4971917;28;20412;-71
2022/05/14 01:38:33;;;;;;;6.20;1.13;;;;;;;17.06;50.32;100840.63;4972271;28;20411;-71
2022/05/14 01:40:59;;;;;;;2.07;0.90;;;;;;;17.03;50.32;100841.19;4973048;28;20399;-71
2022/05/14 01:43:25;;;;;;;1.75;1.30;;;;;;;17.01;50.48;100846.16;4971718;28;20459;-71
2022/05/14 01:45:50;;;;;;;1.43;1.17;;;;;;;17.01;50.50;100839.84;4972183;28;20412;-71
2022/05/14 01:48:16;;;;;;;3.33;1.37;;;;;;;16.99;50.68;100842.06;4973100;28;20749;-70
2022/05/14 01:50:41;;;;;;;3.20;1.10;;;;;;;16.98;50.61;100833.00;4973055;28;20538;-71
2022/05/14 01:53:08;;;;;;;3.00;1.10;;;;;;;16.98;50.51;100838.50;4972736;28;20404;-71
2022/05/14 01:55:33;;;;;;;5.45;1.25;;;;;;;17.00;50.47;100835.47;4971827;28;20408;-71
2022/05/14 01:57:58;;;;;;;7.60;1.30;;;;;;;16.97;50.77;100830.53;4972874;28;20938;-71
2022/05/14 02:00:24;;;;;;;3.33;1.20;;;;;;;16.95;50.63;100827.28;4972120;28;20444;-71
2022/05/14 02:02:50;;;;;;;4.40;0.97;;;;;;;16.91;50.85;100835.22;4972789;28;20570;-71
2022/05/14 02:05:16;;;;;;;6.65;1.25;;;;;;;16.85;51.00;100827.28;4970175;28;20407;-71
2022/05/14 02:07:42;;;;;;;4.18;1.20;;;;;;;16.80;51.17;100824.56;4971360;28;20745;-71
2022/05/14 02:10:08;;;;;;;2.20;1.20;;;;;;;16.78;51.36;100824.03;4972886;28;20415;-71
2022/05/14 02:12:34;;;;;;;3.67;1.38;;;;;;;16.74;51.35;100822.94;4972797;28;20400;-71
2022/05/14 02:14:59;;;;;;;3.33;1.25;;;;;;;16.71;51.44;100823.47;4971472;28;20930;-71
2022/05/14 02:17:25;;;;;;;3.03;1.10;;;;;;;16.71;51.46;100828.97;4972586;28;20479;-71
2022/05/14 02:19:50;;;;;;;2.57;1.50;;;;;;;16.70;51.44;100824.56;4972787;28;20426;-71
2022/05/14 02:22:16;;;;;;;2.10;1.20;;;;;;;16.68;51.15;100824.03;4972595;28;20451;-71
2022/05/14 02:24:41;;;;;;;1.40;1.00;;;;;;;16.63;51.46;100824.84;4971286;28;20895;-71
2022/05/14 02:27:06;;;;;;;3.67;0.97;;;;;;;16.60;51.60;100819.94;4972433;28;20483;-71
2022/05/14 02:29:50;;;;;;;1.70;1.20;;;;;;;16.60;51.78;100826.22;4971422;28;20746;-71
2022/05/14 02:32:16;;;;;;;3.78;1.20;;;;;;;16.47;51.96;100824.03;4975367;28;20404;-71
2022/05/14 02:34:42;;;;;;;1.50;0.90;;;;;;;16.49;51.53;100823.75;4975129;28;20507;-71
2022/05/14 02:37:07;;;;;;;2.50;0.90;;;;;;;16.50;51.87;100825.38;4975313;28;20491;-71
2022/05/14 02:39:32;;;;;;;2.67;0.77;;;;;;;16.38;51.98;100828.41;4976427;28;20402;-71
2022/05/14 02:41:57;;;;;;;2.50;1.30;;;;;;;16.26;52.23;100830.63;4976306;28;20755;-71
2022/05/14 02:44:23;;;;;;;2.60;1.10;;;;;;;16.26;52.26;100830.63;4973680;28;20420;-70
2022/05/14 02:46:48;;;;;;;1.47;0.80;;;;;;;16.24;52.36;100832.78;4976411;28;20398;-71
2022/05/14 02:49:13;;;;;;;3.37;1.00;;;;;;;16.27;52.45;100824.03;4976080;28;20815;-71
2022/05/14 02:51:38;;;;;;;3.63;1.10;;;;;;;16.31;52.25;100830.59;4958758;28;20408;-71
2022/05/14 02:54:04;;;;;;;2.23;1.20;;;;;;;16.32;52.23;100829.50;4974647;28;20419;-71
2022/05/14 02:56:29;;;;;;;1.57;1.20;;;;;;;16.34;52.29;100835.53;4975396;28;20492;-71
2022/05/14 02:59:07;;;;;;;3.10;1.00;;;;;;;16.41;51.81;100829.78;4974903;28;20407;-71
2022/05/14 03:01:33;;;;;;;1.27;0.90;;;;;;;16.43;51.73;100833.06;4976154;28;20482;-71
2022/05/14 03:03:58;;;;;;;4.75;1.05;;;;;;;16.43;51.70;100828.41;4973135;28;20990;-71
2022/05/14 03:06:24;;;;;;;2.67;1.10;;;;;;;16.42;51.67;100826.78;4975958;28;20414;-71
2022/05/14 03:08:51;;;;;;;4.40;1.42;;;;;;;16.37;51.72;100825.94;4975951;28;20588;-71
2022/05/14 03:11:16;;;;;;;2.10;1.05;;;;;;;16.30;51.96;100834.41;4975835;28;20399;-71
2022/05/14 03:13:41;;;;;;;1.80;1.33;;;;;;;16.26;52.16;100829.78;4974624;28;20824;-71
2022/05/14 03:16:06;;;;;;;1.77;0.93;;;;;;;16.29;52.32;100827.34;4975505;28;20393;-71
2022/05/14 03:18:32;;;;;;;3.10;1.10;;;;;;;16.28;52.45;100824.84;4974385;28;20771;-71
2022/05/14 03:20:58;;;;;;;5.27;1.40;;;;;;;16.23;52.14;100822.97;4975737;28;20428;-71
2022/05/14 03:23:24;;;;;;;1.98;1.10;;;;;;;16.23;52.10;100822.13;4974516;28;20499;-71
2022/05/14 03:25:49;;;;;;;2.60;1.20;;;;;;;16.24;52.26;100819.13;4974259;28;20492;-71
2022/05/14 03:28:16;;;;;;;2.70;1.20;;;;;;;16.22;52.16;100828.69;4975746;28;20384;-71
2022/05/14 03:30:41;;;;;;;3.37;1.03;;;;;;;16.13;52.59;100819.41;4975577;28;20887;-71
2022/05/14 03:33:06;;;;;;;3.83;0.97;;;;;;;16.07;52.53;100819.38;4973919;28;20424;-71
2022/05/14 03:35:31;;;;;;;2.00;1.20;;;;;;;15.99;52.66;100828.13;4974522;28;20466;-71
2022/05/14 03:37:57;;;;;;;3.47;1.00;;;;;;;16.00;52.63;100821.56;4975510;28;20404;-71
2022/05/14 03:40:22;;;;;;;2.77;0.93;;;;;;;15.89;52.99;100830.03;4975492;28;20401;-71
2022/05/14 03:42:47;;;;;;;1.53;1.17;;;;;;;15.90;52.69;100835.22;4972517;28;20515;-71
2022/05/14 03:45:12;;;;;;;3.70;0.90;;;;;;;15.95;52.69;100834.41;4975330;28;20415;-71
2022/05/14 03:47:38;;;;;;;3.00;1.03;;;;;;;15.86;52.72;100830.56;4973893;28;20399;-71
2022/05/14 03:50:04;;;;;;;2.00;1.07;;;;;;;15.77;53.23;100835.75;4975331;28;20880;-71
2022/05/14 03:52:29;;;;;;;2.80;1.10;;;;;;;15.81;53.18;100836.84;4972780;28;20444;-71
2022/05/14 03:54:55;;;;;;;8.90;1.10;;;;;;;15.75;53.03;100832.44;4974120;28;21028;-71
2022/05/14 03:57:20;;;;;;;3.90;1.70;;;;;;;15.83;53.01;100842.03;4973692;28;20379;-71
2022/05/14 03:59:46;;;;;;;3.73;1.37;;;;;;;15.82;52.91;100834.91;4973739;28;20396;-70
2022/05/14 04:02:12;;;;;;;6.05;1.27;;;;;;;15.72;53.08;100837.63;4973558;28;20396;-71
2022/05/14 04:04:37;;;;;;;3.43;1.00;;;;;;;15.67;53.38;100837.63;4972683;28;20423;-71
2022/05/14 04:07:02;;;;;;;3.67;1.20;;;;;;;15.58;53.48;100840.03;4974703;28;20411;-71
2022/05/14 04:09:28;;;;;;;3.40;0.87;;;;;;;15.49;53.68;100838.94;4974813;28;20396;-71
2022/05/14 04:11:53;;;;;;;1.60;0.90;;;;;;;15.41;53.96;100840.22;4972086;28;20419;-71
2022/05/14 04:14:20;;;;;;;2.93;1.13;;;;;;;15.41;54.03;100836.72;4967612;28;20428;-71
2022/05/14 04:16:45;;;;;;;3.75;1.40;;;;;;;15.43;53.79;100835.34;4974526;28;20516;-71
2022/05/14 04:19:11;;;;;;;1.20;1.10;;;;;;;15.46;53.67;100847.63;4974655;28;20821;-71
2022/05/14 04:21:37;;;;;;;3.00;1.30;;;;;;;15.46;53.60;100853.91;4974452;28;20392;-71
2022/05/14 04:24:03;;;;;;;4.50;1.40;;;;;;;15.43;53.72;100853.63;4974375;28;20420;-71
2022/05/14 04:26:28;;;;;;;2.20;1.10;;;;;;;15.51;53.49;100850.44;4974510;28;20400;-71
2022/05/14 04:28:53;;;;;;;3.17;1.47;;;;;;;15.35;54.32;100846.75;4971851;28;20782;-71
2022/05/14 04:31:21;;;;;;;7.07;1.10;;;;;;;15.22;54.74;100841.78;4961265;28;20895;-72
2022/05/14 04:33:47;;;;;;;4.05;1.20;;;;;;;15.09;55.22;100845.00;4974320;28;20474;-71
2022/05/14 04:36:12;;;;;;;1.53;1.20;;;;;;;15.01;55.21;100849.09;4973192;28;20491;-71
2022/05/14 04:38:37;;;;;;;1.92;1.30;;;;;;;15.00;55.66;100852.06;4974394;28;20498;-71
2022/05/14 04:41:02;;;;;;;2.60;1.30;;;;;;;15.01;55.71;100856.44;4974312;28;20949;-71
2022/05/14 04:43:28;;;;;;;3.17;1.30;;;;;;;15.00;55.64;100852.88;4974030;28;20420;-71
2022/05/14 04:45:54;;;;;;;3.22;1.17;;;;;;;15.04;55.89;100862.19;4974190;28;20491;-71
2022/05/14 04:48:20;;;;;;;3.60;1.10;;;;;;;15.14;55.37;100857.88;4968668;28;20500;-71
2022/05/14 04:50:46;;;;;;;4.70;1.23;;;;;;;15.25;55.33;100856.81;4972648;28;20388;-71
2022/05/14 04:53:12;;;;;;;2.78;1.00;;;;;;;15.22;55.45;100855.44;4973692;28;20875;-71
2022/05/14 04:55:37;;;;;;;3.17;1.20;;;;;;;15.26;55.14;100859.28;4973647;28;20860;-71
2022/05/14 04:58:04;;;;;;;2.30;1.37;;;;;;;15.35;55.26;100867.78;4971485;28;20424;-71
2022/05/14 05:00:29;;;;;;;3.33;0.95;;;;;;;15.42;54.83;100868.38;4973941;28;20475;-71
2022/05/14 05:03:28;;;;;;;5.47;1.08;;;;;;;15.48;55.05;100870.06;4973721;28;20967;-71
2022/05/14 05:05:52;;;;;;;2.53;1.27;;;;;;;15.51;54.95;100875.81;4970826;28;20415;-71
2022/05/14 05:08:18;;;;;;;4.30;1.17;;;;;;;15.52;54.71;100872.00;4972031;28;20416;-71
2022/05/14 05:10:44;;;;;;;3.58;1.20;;;;;;;15.46;54.93;100870.31;4968175;28;20416;-71
2022/05/14 05:13:15;;;;;;;2.20;0.82;;;;;;;15.48;54.99;100878.25;4972770;28;20407;-71
2022/05/14 05:15:40;;;;;;;3.15;1.13;;;;;;;15.39;54.94;100875.19;4973095;28;20396;-71
2022/05/14 05:18:07;;;;;;;2.40;1.23;;;;;;;15.37;55.13;100865.63;4973051;28;20888;-71
2022/05/14 05:20:33;;;;;;;1.80;0.87;;;;;;;15.32;55.24;100871.88;4971989;28;20487;-71
2022/05/14 05:22:59;;;;;;;1.00;0.90;;;;;;;15.37;55.50;100884.75;4969859;28;20428;-71
2022/05/14 05:25:24;;;;;;;3.43;1.03;;;;;;;15.41;55.22;100875.72;4966796;28;20624;-71
2022/05/14 05:27:49;;;;;;;1.90;0.90;;;;;;;15.41;55.34;100881.19;4968168;28;20518;-71
2022/05/14 05:30:16;;;;;;;3.37;1.40;;;;;;;15.49;55.43;100882.63;4972865;28;20483;-71
2022/05/14 05:32:41;;;;;;;3.17;1.00;;;;;;;15.47;55.54;100876.59;4973123;28;20807;-71
2022/05/14 05:35:07;;;;;;;3.40;1.20;;;;;;;15.55;55.28;100884.28;4972094;28;20498;-71
2022/05/14 05:37:32;;;;;;;2.37;0.90;;;;;;;15.60;54.92;100875.31;4965834;28;20413;-71
2022/05/14 05:39:58;;;;;;;1.85;0.82;;;;;;;15.57;55.42;100882.13;4973157;28;20404;-71
2022/05/14 05:42:23;;;;;;;4.10;0.77;;;;;;;15.60;55.45;100876.13;4973044;28;20397;-72
2022/05/14 05:44:48;;;;;;;3.80;1.00;;;;;;;15.70;55.49;100881.63;4971225;28;20439;-72
2022/05/14 05:47:14;;;;;;;3.33;1.00;;;;;;;15.77;55.28;100879.47;4972578;28;20416;-72
2022/05/14 05:49:40;;;;;;;4.17;1.37;;;;;;;15.77;55.34;100884.13;4972920;28;20399;-71
2022/05/14 05:52:05;;;;;;;1.80;0.97;;;;;;;15.80;55.43;100880.84;4971520;28;20404;-70
2022/05/14 05:57:15;;;;;;;3.83;1.80;;;;;;;15.82;55.75;100889.59;4972983;28;20391;-71
2022/05/14 05:59:40;;;;;;;4.65;1.20;;;;;;;15.93;55.30;100886.63;4970565;28;20412;-71
2022/05/14 06:02:08;;;;;;;1.57;0.93;;;;;;;16.02;55.48;100884.16;4969457;28;20416;-72
2022/05/14 06:04:34;;;;;;;3.07;1.20;;;;;;;15.98;55.58;100888.53;4968325;28;20416;-71
2022/05/14 06:06:59;;;;;;;3.50;1.42;;;;;;;15.90;56.05;100897.28;4972745;28;20416;-71
2022/05/14 06:09:26;;;;;;;2.30;1.50;;;;;;;15.89;56.09;100899.19;4972731;28;20796;-71
2022/05/14 06:11:52;;;;;;;4.22;1.35;;;;;;;15.95;55.94;100900.00;4969788;28;20929;-71
2022/05/14 06:14:18;;;;;;;2.55;1.02;;;;;;;16.08;55.38;100894.00;4971754;28;20419;-72
2022/05/14 06:16:44;;;;;;;3.13;1.27;;;;;;;16.10;55.46;100897.31;4987724;28;20414;-72
2022/05/14 06:19:10;;;;;;;4.82;1.13;;;;;;;16.07;55.63;100904.13;4972713;28;20547;-72
2022/05/14 06:21:37;;;;;;;2.90;1.50;;;;;;;16.07;55.58;100903.31;4970677;28;20412;-72
2022/05/14 06:24:04;;;;;;;1.75;1.10;;;;;;;16.10;55.73;100900.84;4969515;28;20415;-72
2022/05/14 06:26:29;;;;;;;6.45;1.65;;;;;;;16.07;55.82;100895.09;4961715;28;21046;-72
2022/05/14 06:28:54;;;;;;;4.40;1.03;;;;;;;16.18;55.48;100894.03;4968690;28;20423;-72
2022/05/14 06:31:20;;;;;;;2.63;1.20;;;;;;;16.29;55.30;100906.66;4972218;28;20455;-72
2022/05/14 06:33:46;;;;;;;7.67;1.70;;;;;;;16.35;55.05;100899.25;4971213;28;20420;-72
2022/05/14 06:36:12;;;;;;;4.25;1.58;;;;;;;16.42;54.84;100899.81;4970889;28;20412;-73
2022/05/14 06:38:38;;;;;;;4.85;1.38;;;;;;;16.46;54.96;100909.13;4968381;28;20887;-73
2022/05/14 06:41:06;;;;;;;3.92;1.70;;;;;;;16.48;54.94;100905.00;4970296;28;20427;-74
2022/05/14 06:43:33;;;;;;;2.33;1.60;;;;;;;16.56;54.60;100906.44;4971152;28;21311;-73
2022/05/14 06:45:59;;;;;;;2.85;1.52;;;;;;;16.51;55.18;100909.94;4972510;28;20759;-72
2022/05/14 06:48:24;;;;;;;3.47;1.60;;;;;;;16.59;55.21;100909.44;4969652;28;20412;-72
2022/05/14 06:50:50;;;;;;;3.67;1.60;;;;;;;16.66;55.45;100913.81;4967516;28;20428;-72
2022/05/14 06:53:18;;;;;;;3.63;1.60;;;;;;;16.63;55.36;100912.41;4972256;28;20392;-72
2022/05/14 06:55:46;;;;;;;4.18;1.58;;;;;;;16.59;55.66;100922.28;4972378;28;20820;-72
2022/05/14 06:58:16;;;;;;;14.00;1.98;;;;;;;16.56;55.63;100920.09;4972139;28;20406;-72
2022/05/14 07:00:42;;;;;;;3.22;1.75;;;;;;;16.65;55.57;100912.16;4965804;28;20419;-72
2022/05/14 07:08:37;;;;;;;2.97;1.55;;;;;;;16.79;55.07;100919.56;4968789;28;20455;-72
2022/05/14 07:11:02;;;;;;;5.83;1.63;;;;;;;16.85;54.85;100920.38;4971553;28;20829;-72
2022/05/14 07:13:27;;;;;;;3.73;1.80;;;;;;;16.91;55.00;100924.72;4972165;28;20751;-72
2022/05/14 07:15:53;;;;;;;3.47;2.00;;;;;;;16.94;54.54;100921.44;4972037;28;20400;-72
2022/05/14 07:18:18;;;;;;;5.78;1.60;;;;;;;17.00;54.27;100917.59;4973387;28;20510;-72
2022/05/14 07:20:43;;;;;;;4.87;1.67;;;;;;;17.07;54.61;100923.63;4967073;28;20883;-72
2022/05/14 07:23:09;;;;;;;4.90;1.73;;;;;;;17.11;54.95;100925.53;4974956;28;20422;-71
2022/05/14 07:25:34;;;;;;;5.47;1.73;;;;;;;17.08;55.04;100920.63;4975759;28;20407;-71
2022/05/14 07:27:59;;;;;;;2.60;1.70;;;;;;;17.08;54.68;100917.88;4974685;28;20460;-72
2022/05/14 07:30:27;;;;;;;3.87;1.60;;;;;;;17.13;54.47;100917.03;4974793;28;20416;-70
2022/05/14 07:32:52;;;;;;;5.30;1.83;;;;;;;17.13;54.34;100914.28;4973610;28;20503;-71
2022/05/14 07:35:18;;;;;;;3.67;1.57;;;;;;;17.17;54.92;100914.56;4975354;28;20412;-71
2022/05/14 07:37:53;;;;;;;2.70;1.40;;;;;;;17.24;54.89;100915.09;4948944;28;20510;-71
2022/05/14 07:40:23;;;;;;;3.07;1.83;;;;;;;17.27;55.43;100920.84;4947584;28;20445;-70
2022/05/14 07:43:08;;;;;;;4.85;1.63;;;;;;;17.32;55.17;100911.78;4951388;28;20416;-71
2022/05/14 07:45:41;;;;;;;4.47;2.15;;;;;;;17.35;54.29;100916.72;4954465;28;20456;-70
2022/05/14 07:48:24;;;;;;;3.60;1.20;;;;;;;17.36;53.66;100913.69;4950842;28;20482;-71
2022/05/14 07:50:50;;;;;;;3.05;1.33;;;;;;;17.44;53.44;100921.34;4948967;28;20835;-71
2022/05/14 07:53:17;;;;;;;5.60;1.52;;;;;;;17.49;53.76;100917.75;4952296;28;20484;-70
2022/05/14 07:55:43;;;;;;;9.27;1.70;;;;;;;17.53;53.82;100918.84;4970095;28;20452;-71
2022/05/14 07:58:09;;;;;;;9.77;2.13;;;;;;;17.56;53.48;100919.13;4949920;28;20410;-71
2022/05/14 08:00:34;;;;;;;3.10;1.52;;;;;;;17.61;52.70;100913.66;4949399;28;20412;-71
2022/05/14 08:03:00;;;;;;;3.13;1.47;;;;;;;17.66;53.22;100914.69;4950217;28;20439;-71
2022/05/14 08:05:26;;;;;;;1.45;1.20;;;;;;;17.69;53.55;100917.69;4951259;28;20416;-70
2022/05/14 08:07:51;;;;;;;1.73;1.40;;;;;;;17.73;53.56;100915.22;4957950;28;20412;-70
2022/05/14 08:10:17;;;;;;;4.50;1.80;;;;;;;17.79;53.47;100911.34;4982054;28;20465;-70
2022/05/14 08:12:46;;;;;;;4.88;1.52;;;;;;;17.86;53.96;100923.66;4969959;28;20483;-70
2022/05/14 08:15:15;;;;;;;6.45;1.75;;;;;;;17.93;54.08;100920.59;4971122;28;20555;-70
2022/05/14 08:17:40;;;;;;;3.70;1.63;;;;;;;18.00;53.66;100915.63;4973852;28;20838;-71
2022/05/14 08:20:06;;;;;;;8.10;2.40;;;;;;;18.05;53.23;100913.69;4973939;28;20447;-70
2022/05/14 08:25:15;;;;;;;12.27;1.98;;;;;;;18.13;53.58;100910.34;4974351;28;20427;-70
2022/05/14 08:27:47;;;;;;;3.53;1.87;;;;;;;18.20;52.08;100906.47;4965706;28;20393;-71
2022/05/14 08:30:26;;;;;;;4.85;1.40;;;;;;;18.23;52.03;100903.16;4968274;28;20392;-70
2022/05/14 08:32:52;;;;;;;3.75;1.40;;;;;;;18.30;51.59;100903.66;4968435;28;20919;-70
2022/05/14 08:35:18;;;;;;;6.30;1.60;;;;;;;18.41;50.76;100908.78;4973519;28;20462;-69
2022/05/14 08:37:44;;;;;;;5.50;1.10;;;;;;;18.49;50.40;100907.34;4970805;28;20400;-70
2022/05/14 08:40:19;;;;;;;3.90;1.03;;;;;;;18.55;50.17;100915.28;4953040;28;20416;-70
2022/05/14 08:42:52;;;;;;;5.30;1.00;;;;;;;18.62;50.26;100914.97;4950388;28;20511;-70
2022/05/14 08:45:20;;;;;;;3.38;1.13;;;;;;;18.73;49.72;100911.03;4951971;28;23218;-71
2022/05/14 08:47:55;;;;;;;5.22;1.10;;;;;;;18.85;49.01;100900.47;4948032;28;20469;-70
2022/05/14 08:50:24;;;;;;;4.40;1.50;;;;;;;18.99;48.65;100911.63;4955378;28;20410;-71
2022/05/14 08:52:50;;;;;;;3.85;1.30;;;;;;;19.15;48.20;100910.34;4951671;28;20428;-70
2022/05/14 08:55:18;;;;;;;17.60;2.97;;;;;;;19.27;47.72;100904.44;4955542;28;20805;-71
2022/05/14 08:57:53;;;;;;;2.35;0.93;;;;;;;19.34;47.20;100905.75;4949458;28;20421;-70
2022/05/14 09:00:19;;;;;;;6.75;1.10;;;;;;;19.39;48.02;100905.69;4961122;28;20421;-70
2022/05/14 09:02:48;;;;;;;4.97;1.60;;;;;;;19.56;48.26;100906.03;4958625;28;20466;-70
2022/05/14 09:05:18;;;;;;;4.57;1.23;;;;;;;19.72;47.56;100905.88;4948133;28;20418;-70
2022/05/14 09:07:44;;;;;;;1.80;0.82;;;;;;;19.83;46.45;100897.19;4958276;28;20408;-72
2022/05/14 09:10:25;;;;;;;2.23;0.80;;;;;;;19.94;46.54;100898.69;4971969;28;20411;-70
2022/05/14 09:12:57;;;;;;;4.68;1.27;;;;;;;20.05;45.92;100891.94;4967972;28;20496;-70
2022/05/14 09:15:26;;;;;;;2.85;1.55;;;;;;;20.15;45.41;100893.72;4967485;28;20487;-69
2022/05/14 09:18:12;;;;;;;2.28;0.82;;;;;;;20.29;44.44;100885.53;4968568;28;20775;-70
2022/05/14 09:20:46;;;;;;;4.15;1.42;;;;;;;20.39;44.29;100886.19;4968544;28;20427;-72
2022/05/14 09:23:12;;;;;;;48.05;8.70;;;;;;;20.51;44.40;100886.56;4969859;28;20770;-72
2022/05/14 09:25:41;;;;;;;68.85;8.73;;;;;;;20.61;43.96;100885.59;4970544;28;20427;-71
2022/05/14 09:28:26;;;;;;;3.50;1.20;;;;;;;20.71;42.84;100877.94;4971256;28;20871;-71
2022/05/14 09:30:55;;;;;;;3.43;1.10;;;;;;;20.80;43.17;100882.78;4973147;28;20730;-71
2022/05/14 09:33:34;;;;;;;1.17;0.85;;;;;;;20.99;43.27;100886.28;4972643;28;20979;-71
2022/05/14 09:36:00;;;;;;;2.63;0.75;;;;;;;21.14;43.06;100888.81;4959204;28;20451;-72
2022/05/14 09:38:27;;;;;;;13.48;2.90;;;;;;;21.28;42.93;100875.00;4962555;28;20417;-72
2022/05/14 09:40:55;;;;;;;5.10;3.10;;;;;;;21.44;41.39;100879.13;4947037;28;20428;-71
2022/05/14 09:43:20;;;;;;;1.70;0.90;;;;;;;21.55;41.81;100881.34;4947809;28;20414;-71
2022/05/14 09:46:10;;;;;;;2.33;1.10;;;;;;;21.78;41.69;100884.16;4948950;28;20997;-71
2022/05/14 09:48:47;;;;;;;4.03;1.35;;;;;;;22.01;41.17;100885.88;4968518;28;20396;-71
2022/05/14 09:51:14;;;;;;;4.47;0.82;;;;;;;22.53;40.21;100882.41;4964219;28;20420;-71
2022/05/14 09:53:43;;;;;;;4.03;0.98;;;;;;;23.46;37.31;100886.06;4947717;28;20842;-71
2022/05/14 09:56:32;;;;;;;4.80;0.90;;;;;;;24.63;33.21;100875.75;4948201;28;20416;-71
2022/05/14 09:59:00;;;;;;;5.40;0.95;;;;;;;25.69;31.33;100877.53;4948293;28;20417;-71
2022/05/14 10:01:41;;;;;;;3.03;0.75;;;;;;;26.89;30.33;100878.53;4956873;28;20430;-71
2022/05/14 10:04:19;;;;;;;2.40;0.90;;;;;;;27.95;29.82;100876.50;4957270;28;20440;-71
2022/05/14 10:06:52;;;;;;;1.80;1.05;;;;;;;28.75;28.68;100874.50;4953991;28;20414;-72
2022/05/14 10:09:37;;;;;;;3.30;1.20;;;;;;;29.48;27.62;100874.03;4970393;28;20454;-72
2022/05/14 10:12:24;;;;;;;2.40;1.15;;;;;;;29.93;27.05;100869.91;4972763;28;20381;-72
2022/05/14 10:14:55;;;;;;;2.58;0.90;;;;;;;30.25;25.83;100872.22;4972649;28;20408;-72
2022/05/14 10:17:44;;;;;;;1.95;0.85;;;;;;;30.44;25.08;100874.22;4972782;28;20397;-72
2022/05/14 10:20:17;;;;;;;6.38;1.30;;;;;;;30.43;24.79;100869.03;4972960;28;20404;-72
2022/05/14 10:29:03;;;;;;;5.15;1.13;;;;;;;31.13;22.97;100861.16;4972183;28;20403;-72
2022/05/14 10:31:52;;;;;;;8.20;0.73;;;;;;;31.37;21.82;100860.78;4972650;28;20416;-72
2022/05/14 10:34:25;;;;;;;0.68;0.68;;;;;;;31.57;21.61;100858.72;4972509;28;20416;-72
2022/05/14 10:37:26;;;;;;;1.75;0.63;;;;;;;31.64;20.64;100865.25;4971436;28;20400;-72
2022/05/14 10:40:15;;;;;;;1.98;0.90;;;;;;;32.07;20.63;100860.28;4952583;28;20808;-72
2022/05/14 10:42:50;;;;;;;1.60;0.77;;;;;;;32.61;18.25;100854.13;4954239;28;20416;-72
2022/05/14 10:45:22;;;;;;;1.23;0.80;;;;;;;33.17;17.96;100851.91;4953204;28;20457;-72
2022/05/14 10:48:08;;;;;;;2.00;0.52;;;;;;;33.23;18.74;100853.16;4953212;28;20408;-72
2022/05/14 10:50:34;;;;;;;3.35;0.52;;;;;;;33.31;19.27;100857.66;4959834;28;20415;-72
2022/05/14 10:52:59;;;;;;;1.00;0.43;;;;;;;33.10;18.58;100845.44;4953447;28;20413;-72
2022/05/14 10:55:29;;;;;;;1.13;0.60;;;;;;;33.17;18.92;100843.50;4961762;28;20510;-70
2022/05/14 10:57:59;;;;;;;2.30;0.50;;;;;;;33.59;18.57;100839.41;4959583;28;20414;-72
2022/05/14 11:00:28;;;;;;;1.90;0.75;;;;;;;33.55;19.15;100842.19;4970728;28;20419;-69
2022/05/14 11:03:06;;;;;;;4.70;0.70;;;;;;;33.50;18.72;100839.72;4971837;28;20914;-72
2022/05/14 11:05:49;;;;;;;1.75;0.65;;;;;;;33.97;17.77;100832.41;4969950;28;20498;-72
2022/05/14 11:08:31;;;;;;;1.85;0.90;;;;;;;34.31;17.63;100834.63;4964235;28;20404;-72
2022/05/14 11:11:18;;;;;;;1.90;0.70;;;;;;;34.15;17.56;100833.34;4975910;28;20396;-72
2022/05/14 11:14:08;;;;;;;1.55;0.57;;;;;;;34.12;17.99;100831.31;4975040;28;20416;-72
2022/05/14 11:16:40;;;;;;;1.95;0.90;;;;;;;33.95;17.50;100827.19;4978826;28;20942;-72
2022/05/14 11:19:07;;;;;;;1.58;0.55;;;;;;;34.21;17.95;100826.13;4964079;28;20420;-71
2022/05/14 11:21:41;;;;;;;5.32;1.30;;;;;;;34.38;17.62;100831.03;4972223;28;20420;-71
2022/05/14 11:24:11;;;;;;;1.38;0.77;;;;;;;34.20;18.56;100830.13;4975629;28;20779;-72
2022/05/14 11:27:03;;;;;;;1.65;0.88;;;;;;;33.81;19.35;100821.50;4975795;28;20388;-72
2022/05/14 11:29:34;;;;;;;1.73;0.60;;;;;;;33.61;19.35;100825.78;4972400;28;20888;-72
2022/05/14 11:32:02;;;;;;;1.67;0.60;;;;;;;33.39;18.61;100825.59;4974514;28;20411;-71
2022/05/14 11:34:28;;;;;;;1.80;0.70;;;;;;;33.03;18.49;100820.88;4974616;28;20416;-72
2022/05/14 11:36:57;;;;;;;2.07;0.67;;;;;;;33.18;18.79;100819.03;4975609;28;20887;-72
2022/05/14 11:39:22;;;;;;;3.37;0.73;;;;;;;33.11;19.37;100824.59;4962004;28;20408;-72
2022/05/14 11:41:50;;;;;;;1.03;0.70;;;;;;;33.14;17.89;100810.56;4966927;28;20529;-72
2022/05/14 11:44:55;;;;;;;5.00;1.00;;;;;;;33.42;18.13;100812.00;4956226;28;20479;-72
2022/05/14 11:47:32;;;;;;;2.40;1.10;;;;;;;33.30;18.95;100799.84;4936428;28;20828;-72
2022/05/14 11:50:00;;;;;;;2.50;0.70;;;;;;;33.36;19.04;100803.13;4957831;28;20540;-72
2022/05/14 11:52:40;;;;;;;0.88;0.52;;;;;;;33.33;18.33;100799.06;4958158;28;20421;-69
2022/05/14 11:55:25;;;;;;;1.25;0.55;;;;;;;32.98;18.68;100795.16;4967114;28;20471;-71